Time;durP1;ratioP1;P1;durP2;ratioP2;P2;SDS_P1;SDS_P2;PMS_P1;PMS_P2;Temp;Humidity;BMP_temperature;BMP_pressure;BME280_temperature;BME280_humidity;BME280_pressure;Samples;Min_cycle;Max_cycle;Signal;HPM_P1;HPM_P2
2022/04/20 00:00:27;;;;;;;0.30;0.30;;;7.20;99.90;;;;;;4974497;28;20483;-91
2022/04/20 00:02:52;;;;;;;0.30;0.30;;;7.10;99.90;;;;;;4973912;28;20189;-91
2022/04/20 00:05:18;;;;;;;0.30;0.30;;;7.10;99.90;;;;;;4975445;28;20190;-91
2022/04/20 00:07:44;;;;;;;0.30;0.30;;;7.10;99.90;;;;;;4975751;28;20234;-91
2022/04/20 00:10:09;;;;;;;0.30;0.30;;;6.90;99.90;;;;;;4974332;28;20496;-90
2022/04/20 00:12:35;;;;;;;0.30;0.30;;;6.90;99.90;;;;;;4975334;28;20190;-91
2022/04/20 00:15:01;;;;;;;0.30;0.30;;;6.80;99.90;;;;;;4959654;28;20186;-91
2022/04/20 00:17:26;;;;;;;0.30;0.30;;;6.80;99.90;;;;;;4974718;28;20260;-91
2022/04/20 00:19:51;;;;;;;0.30;0.30;;;6.90;99.90;;;;;;4975349;28;20215;-91
2022/04/20 00:22:17;;;;;;;0.30;0.30;;;6.90;99.90;;;;;;4974395;28;20272;-91
2022/04/20 00:24:43;;;;;;;0.30;0.30;;;6.80;99.90;;;;;;4968587;28;20997;-91
2022/04/20 00:27:08;;;;;;;0.30;0.30;;;6.80;99.90;;;;;;4958930;28;20187;-90
2022/04/20 00:29:35;;;;;;;0.30;0.30;;;6.80;99.90;;;;;;4954675;28;20209;-90
2022/04/20 00:32:01;;;;;;;0.30;0.30;;;6.80;99.90;;;;;;4978559;28;20472;-91
2022/04/20 00:34:26;;;;;;;0.30;0.30;;;6.70;99.90;;;;;;4974894;28;20194;-91
2022/04/20 00:36:53;;;;;;;0.30;0.30;;;6.80;99.90;;;;;;4975240;28;20260;-91
2022/04/20 00:39:19;;;;;;;0.30;0.30;;;6.80;99.90;;;;;;4955548;28;20227;-91
2022/04/20 00:41:45;;;;;;;0.30;0.30;;;6.90;99.90;;;;;;4972440;28;20445;-91
2022/04/20 00:44:11;;;;;;;0.30;0.30;;;6.90;99.90;;;;;;4954545;28;20783;-91
2022/04/20 00:46:38;;;;;;;0.30;0.30;;;7.00;99.90;;;;;;4975576;28;20452;-91
2022/04/20 00:49:05;;;;;;;0.30;0.30;;;6.70;99.90;;;;;;4974653;28;20198;-90
2022/04/20 00:51:31;;;;;;;0.30;0.30;;;6.70;99.90;;;;;;4976018;28;20492;-91
2022/04/20 00:54:01;;;;;;;0.30;0.30;;;6.70;99.90;;;;;;4973909;28;20957;-91
2022/04/20 00:56:27;;;;;;;0.30;0.30;;;6.80;99.90;;;;;;4975360;28;20457;-92
2022/04/20 00:58:54;;;;;;;0.30;0.30;;;7.00;99.90;;;;;;4974067;28;20440;-91
2022/04/20 01:01:20;;;;;;;0.30;0.30;;;6.90;99.90;;;;;;4974906;28;20441;-90
2022/04/20 01:03:46;;;;;;;0.30;0.30;;;6.80;99.90;;;;;;4957188;28;20984;-90
2022/04/20 01:06:11;;;;;;;0.30;0.30;;;6.70;99.90;;;;;;4958103;28;20225;-91
2022/04/20 01:08:37;;;;;;;0.40;0.40;;;6.60;99.90;;;;;;4972833;28;20260;-90
2022/04/20 01:11:03;;;;;;;0.30;0.30;;;6.60;99.90;;;;;;4956098;28;20218;-92
2022/04/20 01:13:29;;;;;;;0.30;0.30;;;6.50;99.90;;;;;;4973215;28;20285;-92
2022/04/20 01:15:54;;;;;;;0.30;0.30;;;6.30;99.90;;;;;;4973625;28;20560;-93
2022/04/20 01:18:20;;;;;;;0.40;0.40;;;6.30;99.90;;;;;;4974576;28;20190;-92
2022/04/20 01:20:46;;;;;;;0.40;0.40;;;6.10;99.90;;;;;;4974413;28;20182;-94
2022/04/20 01:23:11;;;;;;;0.40;0.40;;;6.00;99.90;;;;;;4972340;28;20487;-94
2022/04/20 01:25:38;;;;;;;0.30;0.30;;;6.00;99.90;;;;;;4973753;28;20673;-91
2022/04/20 01:28:04;;;;;;;0.30;0.30;;;6.00;99.90;;;;;;4973960;28;20293;-93
2022/04/20 01:30:30;;;;;;;0.30;0.30;;;6.00;99.90;;;;;;4973371;28;20525;-92
2022/04/20 01:32:56;;;;;;;0.40;0.40;;;5.90;99.90;;;;;;4954184;28;20444;-92
2022/04/20 01:35:22;;;;;;;0.30;0.30;;;5.70;99.90;;;;;;4955868;28;20448;-93
2022/04/20 01:37:48;;;;;;;0.30;0.30;;;5.80;99.90;;;;;;4974401;28;21060;-93
2022/04/20 01:40:14;;;;;;;0.30;0.30;;;5.80;99.90;;;;;;4973400;28;20449;-91
2022/04/20 01:42:39;;;;;;;0.40;0.40;;;5.80;99.90;;;;;;4971969;28;20476;-93
2022/04/20 01:45:05;;;;;;;0.40;0.40;;;6.00;99.90;;;;;;4950603;28;20185;-92
2022/04/20 01:47:31;;;;;;;0.30;0.30;;;6.00;99.90;;;;;;4971543;28;20201;-92
2022/04/20 01:49:56;;;;;;;0.33;0.33;;;5.80;99.90;;;;;;4969837;28;20203;-93
2022/04/20 01:52:21;;;;;;;0.40;0.40;;;5.70;99.90;;;;;;4969589;28;20256;-92
2022/04/20 01:54:47;;;;;;;0.30;0.30;;;5.70;99.90;;;;;;4956615;28;20276;-93
2022/04/20 01:57:12;;;;;;;0.30;0.30;;;5.60;99.90;;;;;;4972291;28;20217;-94
2022/04/20 01:59:38;;;;;;;0.30;0.30;;;5.50;99.90;;;;;;4974310;28;20201;-94
2022/04/20 02:04:48;;;;;;;0.30;0.30;;;5.50;99.90;;;;;;4960709;28;20194;-93
2022/04/20 02:07:13;;;;;;;0.33;0.33;;;5.40;99.90;;;;;;4974114;28;20485;-93
2022/04/20 02:09:39;;;;;;;0.30;0.30;;;5.40;99.90;;;;;;4973973;28;20189;-93
2022/04/20 02:12:05;;;;;;;0.30;0.30;;;5.50;99.90;;;;;;4972201;28;20202;-93
2022/04/20 02:14:30;;;;;;;0.40;0.40;;;5.40;99.90;;;;;;4955551;28;20194;-93
2022/04/20 02:16:56;;;;;;;0.40;0.40;;;5.50;99.90;;;;;;4968335;28;20987;-92
2022/04/20 02:19:21;;;;;;;0.30;0.30;;;5.50;99.90;;;;;;4973746;28;20196;-93
2022/04/20 02:21:47;;;;;;;0.40;0.40;;;5.40;99.90;;;;;;4956608;28;20217;-93
2022/04/20 02:24:14;;;;;;;0.40;0.40;;;5.40;99.90;;;;;;4974192;28;20706;-93
2022/04/20 02:26:40;;;;;;;0.40;0.40;;;5.50;99.90;;;;;;4955302;28;20193;-93
2022/04/20 02:29:06;;;;;;;0.30;0.30;;;5.50;99.90;;;;;;4966570;28;20820;-93
2022/04/20 02:31:32;;;;;;;0.30;0.30;;;5.60;99.90;;;;;;4970833;28;20539;-93
2022/04/20 02:33:57;;;;;;;0.30;0.30;;;5.50;99.90;;;;;;4968626;28;20192;-93
2022/04/20 02:36:23;;;;;;;0.30;0.30;;;5.30;99.90;;;;;;4973907;28;20848;-93
2022/04/20 02:38:49;;;;;;;0.30;0.30;;;5.10;99.90;;;;;;4973390;28;20197;-93
2022/04/20 02:41:16;;;;;;;0.40;0.40;;;5.20;99.90;;;;;;4954403;28;20183;-93
2022/04/20 02:43:42;;;;;;;0.40;0.40;;;5.20;99.90;;;;;;4973166;28;21251;-93
2022/04/20 02:46:07;;;;;;;0.30;0.30;;;5.30;99.90;;;;;;4972991;28;20449;-92
2022/04/20 02:48:34;;;;;;;0.30;0.30;;;5.40;99.90;;;;;;4973728;28;20232;-92
2022/04/20 02:50:59;;;;;;;0.40;0.40;;;5.40;99.90;;;;;;4970733;28;20232;-93
2022/04/20 02:53:25;;;;;;;0.40;0.40;;;5.40;99.90;;;;;;4973757;28;20437;-93
2022/04/20 02:55:50;;;;;;;0.30;0.30;;;5.30;99.90;;;;;;4962048;28;20634;-93
2022/04/20 02:58:16;;;;;;;0.37;0.37;;;5.20;99.90;;;;;;4971974;28;20213;-93
2022/04/20 03:00:43;;;;;;;0.40;0.40;;;5.30;99.90;;;;;;4971737;28;20190;-93
2022/04/20 03:03:09;;;;;;;0.40;0.40;;;5.30;99.90;;;;;;4972573;28;20449;-93
2022/04/20 03:05:34;;;;;;;0.30;0.30;;;5.30;99.90;;;;;;4972642;28;20452;-93
2022/04/20 03:08:00;;;;;;;0.30;0.30;;;5.10;99.90;;;;;;4972937;28;20652;-93
2022/04/20 03:10:26;;;;;;;0.30;0.30;;;5.10;99.90;;;;;;4971753;28;20222;-93
2022/04/20 03:12:52;;;;;;;0.40;0.40;;;5.20;99.90;;;;;;4972817;28;20217;-93
2022/04/20 03:15:17;;;;;;;0.30;0.30;;;5.20;99.90;;;;;;4955042;28;20193;-93
2022/04/20 03:17:43;;;;;;;0.40;0.40;;;5.00;99.90;;;;;;4972419;28;20449;-93
2022/04/20 03:20:10;;;;;;;0.40;0.40;;;5.00;99.90;;;;;;4972349;28;20201;-92
2022/04/20 03:22:35;;;;;;;0.40;0.40;;;4.90;99.90;;;;;;4972606;28;20189;-92
2022/04/20 03:25:01;;;;;;;0.30;0.30;;;4.80;99.90;;;;;;4973504;28;20488;-92
2022/04/20 03:27:27;;;;;;;0.30;0.30;;;4.80;99.90;;;;;;4969293;28;20316;-93
2022/04/20 03:29:52;;;;;;;0.30;0.30;;;4.80;99.90;;;;;;4953520;28;20256;-93
2022/04/20 03:32:18;;;;;;;0.40;0.40;;;5.10;99.90;;;;;;4973028;28;20638;-92
2022/04/20 03:34:43;;;;;;;0.30;0.30;;;5.10;99.90;;;;;;4954103;28;20190;-93
2022/04/20 03:37:09;;;;;;;0.30;0.30;;;5.10;99.90;;;;;;4955137;28;20257;-93
2022/04/20 03:39:36;;;;;;;0.33;0.33;;;5.00;99.90;;;;;;4972633;28;20190;-93
2022/04/20 03:42:03;;;;;;;0.40;0.40;;;4.90;99.90;;;;;;4955464;28;20798;-93
2022/04/20 03:44:29;;;;;;;0.40;0.40;;;4.90;99.90;;;;;;4972332;28;20437;-93
2022/04/20 03:46:55;;;;;;;0.40;0.40;;;5.00;99.90;;;;;;4954966;28;20464;-92
2022/04/20 03:49:20;;;;;;;0.40;0.40;;;5.20;99.90;;;;;;4972855;28;20198;-92
2022/04/20 03:51:46;;;;;;;0.30;0.30;;;5.10;99.90;;;;;;4971362;28;20728;-93
2022/04/20 03:54:12;;;;;;;0.40;0.40;;;5.20;99.90;;;;;;4971492;28;20182;-93
2022/04/20 03:59:22;;;;;;;0.40;0.40;;;5.30;99.90;;;;;;4976281;28;20832;-92
2022/04/20 04:01:48;;;;;;;0.37;0.37;;;5.30;99.90;;;;;;4975757;28;20456;-92
2022/04/20 04:04:14;;;;;;;0.40;0.40;;;5.30;99.90;;;;;;4976168;28;20620;-92
2022/04/20 04:06:39;;;;;;;0.40;0.40;;;5.30;99.90;;;;;;4975686;28;20567;-92
2022/04/20 04:09:04;;;;;;;0.30;0.30;;;5.20;99.90;;;;;;4974925;28;20194;-94
2022/04/20 04:11:30;;;;;;;0.40;0.40;;;5.20;99.90;;;;;;4953477;28;20252;-93
2022/04/20 04:13:55;;;;;;;0.30;0.30;;;5.20;99.90;;;;;;4975692;28;20186;-94
2022/04/20 04:16:21;;;;;;;0.30;0.30;;;5.20;99.90;;;;;;4973644;28;20193;-93
2022/04/20 04:18:46;;;;;;;0.40;0.40;;;5.10;99.90;;;;;;4957357;28;20236;-93
2022/04/20 04:21:12;;;;;;;0.30;0.30;;;5.10;99.90;;;;;;4947170;28;20282;-94
2022/04/20 04:23:38;;;;;;;0.30;0.30;;;5.10;99.90;;;;;;4976109;28;20186;-93
2022/04/20 04:26:03;;;;;;;0.30;0.30;;;5.00;99.90;;;;;;4955722;28;20205;-94
2022/04/20 04:28:29;;;;;;;0.30;0.30;;;5.10;99.90;;;;;;4975173;28;20249;-93
2022/04/20 04:30:54;;;;;;;0.40;0.40;;;5.10;99.90;;;;;;4979616;28;20213;-94
2022/04/20 04:33:20;;;;;;;0.30;0.30;;;5.20;99.90;;;;;;4965831;28;20194;-94
2022/04/20 04:35:46;;;;;;;0.30;0.30;;;5.20;99.90;;;;;;4996104;28;20173;-93
2022/04/20 04:38:13;;;;;;;0.40;0.40;;;5.20;99.90;;;;;;4979074;28;20193;-93
2022/04/20 04:40:39;;;;;;;0.40;0.40;;;5.30;99.90;;;;;;4972197;28;20233;-93
2022/04/20 04:43:05;;;;;;;0.30;0.30;;;5.40;99.90;;;;;;4958507;28;20828;-92
2022/04/20 04:50:59;;;;;;;0.37;0.37;;;5.40;99.90;;;;;;4975086;28;20495;-94
2022/04/20 04:53:24;;;;;;;0.40;0.40;;;5.50;99.90;;;;;;4975551;28;20461;-94
2022/04/20 04:55:50;;;;;;;0.30;0.30;;;5.50;99.90;;;;;;4974421;28;20218;-94
2022/04/20 04:58:16;;;;;;;0.40;0.40;;;5.70;99.90;;;;;;4965103;28;20194;-94
2022/04/20 05:00:42;;;;;;;0.33;0.33;;;5.80;99.90;;;;;;4960091;28;20193;-94
2022/04/20 05:03:08;;;;;;;0.30;0.30;;;6.00;99.90;;;;;;4969711;28;20429;-94
2022/04/20 05:05:34;;;;;;;0.40;0.40;;;6.00;99.90;;;;;;4967873;28;20198;-90
2022/04/20 05:07:59;;;;;;;0.30;0.30;;;6.10;99.90;;;;;;4972118;28;20483;-88
2022/04/20 05:10:25;;;;;;;0.30;0.30;;;6.20;99.90;;;;;;4972467;28;20221;-91
2022/04/20 05:12:50;;;;;;;0.30;0.30;;;6.30;99.90;;;;;;4972086;28;20216;-90
2022/04/20 05:15:16;;;;;;;0.30;0.30;;;6.40;99.90;;;;;;4969834;28;20190;-90
2022/04/20 05:17:42;;;;;;;0.30;0.30;;;6.50;99.90;;;;;;4965166;28;20201;-91
2022/04/20 05:20:08;;;;;;;0.30;0.30;;;6.50;99.90;;;;;;4965483;28;20589;-90
2022/04/20 05:22:33;;;;;;;0.30;0.30;;;6.50;99.90;;;;;;4977091;28;20276;-89
2022/04/20 05:24:59;;;;;;;0.30;0.30;;;6.60;99.90;;;;;;4972949;28;20528;-91
2022/04/20 05:27:24;;;;;;;0.30;0.30;;;6.80;99.90;;;;;;4974900;28;20189;-91
2022/04/20 05:29:50;;;;;;;0.30;0.30;;;6.80;99.90;;;;;;4959807;28;20201;-91
2022/04/20 05:32:15;;;;;;;0.30;0.30;;;6.90;99.90;;;;;;4956925;28;20202;-92
2022/04/20 05:34:41;;;;;;;0.30;0.30;;;7.00;99.90;;;;;;4973901;28;20221;-91
2022/04/20 05:42:36;;;;;;;0.20;0.20;;;7.40;99.90;;;;;;4967323;28;20464;-91
2022/04/20 05:45:02;;;;;;;0.30;0.30;;;7.50;99.90;;;;;;4956154;28;20442;-89
2022/04/20 05:47:29;;;;;;;0.20;0.20;;;7.80;99.90;;;;;;4955525;28;20568;-93
2022/04/20 05:49:54;;;;;;;0.30;0.30;;;7.90;99.90;;;;;;4972714;28;20500;-90
2022/04/20 05:52:20;;;;;;;0.20;0.20;;;8.10;99.90;;;;;;4974945;28;20460;-91
2022/04/20 05:54:46;;;;;;;0.20;0.20;;;8.20;99.90;;;;;;4982048;28;20189;-92
2022/04/20 05:57:11;;;;;;;0.20;0.20;;;8.30;99.90;;;;;;4977008;28;20192;-92
2022/04/20 05:59:37;;;;;;;0.20;0.20;;;8.40;99.90;;;;;;4974951;28;20226;-92
2022/04/20 06:02:02;;;;;;;0.20;0.20;;;8.50;99.90;;;;;;4976499;28;20661;-93
2022/04/20 06:04:29;;;;;;;0.20;0.20;;;8.60;99.90;;;;;;4960635;28;20840;-91
2022/04/20 06:06:55;;;;;;;0.30;0.30;;;8.70;99.90;;;;;;4975073;28;20229;-93
2022/04/20 06:09:20;;;;;;;0.30;0.30;;;8.90;99.90;;;;;;4961438;28;20865;-93
2022/04/20 06:11:46;;;;;;;0.20;0.20;;;9.00;99.90;;;;;;4972455;28;20218;-91
2022/04/20 06:14:11;;;;;;;0.20;0.20;;;9.00;99.90;;;;;;4974017;28;20194;-92
2022/04/20 06:16:37;;;;;;;0.20;0.20;;;9.20;99.90;;;;;;4979151;28;20193;-93
2022/04/20 06:19:02;;;;;;;0.27;0.27;;;9.30;99.90;;;;;;4974433;28;20184;-93
2022/04/20 06:21:28;;;;;;;0.30;0.30;;;9.30;99.90;;;;;;4977761;28;20228;-92
2022/04/20 06:23:54;;;;;;;0.30;0.30;;;9.50;99.90;;;;;;4953134;28;20193;-89
2022/04/20 06:26:19;;;;;;;0.30;0.30;;;9.50;99.90;;;;;;4947090;28;20196;-85
2022/04/20 06:28:45;;;;;;;0.37;0.37;;;9.60;99.90;;;;;;4966802;28;20665;-87
2022/04/20 06:31:10;;;;;;;0.80;0.80;;;9.60;99.90;;;;;;4967455;28;20230;-86
2022/04/20 06:33:36;;;;;;;0.50;0.50;;;9.70;99.90;;;;;;4969033;28;20193;-89
2022/04/20 06:36:02;;;;;;;0.67;0.67;;;9.80;99.90;;;;;;4977674;28;20199;-86
2022/04/20 06:38:27;;;;;;;0.60;0.60;;;9.80;99.90;;;;;;4970127;28;20313;-89
2022/04/20 06:40:53;;;;;;;0.50;0.50;;;10.00;99.90;;;;;;4969876;28;20576;-89
2022/04/20 06:43:22;;;;;;;0.30;0.30;;;10.20;99.90;;;;;;4965411;28;20194;-91
2022/04/20 06:45:48;;;;;;;0.30;0.30;;;10.30;99.90;;;;;;4974505;28;20205;-90
2022/04/20 06:48:13;;;;;;;0.20;0.20;;;10.50;99.90;;;;;;4972747;28;20428;-90
2022/04/20 06:50:43;;;;;;;0.30;0.30;;;10.60;99.90;;;;;;4969657;28;20210;-92
2022/04/20 06:58:38;;;;;;;0.20;0.20;;;10.80;99.90;;;;;;4972429;28;20499;-95
2022/04/20 07:01:04;;;;;;;0.30;0.30;;;10.80;99.90;;;;;;4968214;28;20552;-94
2022/04/20 07:03:31;;;;;;;0.30;0.30;;;11.00;99.90;;;;;;4971990;28;20465;-93
2022/04/20 07:06:00;;;;;;;0.20;0.20;;;11.10;99.90;;;;;;4967514;28;20456;-94
2022/04/20 07:08:26;;;;;;;0.30;0.30;;;11.20;99.90;;;;;;4969695;28;20469;-92
2022/04/20 07:10:53;;;;;;;0.30;0.30;;;11.20;99.90;;;;;;4967754;28;20547;-90
2022/04/20 07:13:19;;;;;;;0.20;0.20;;;11.10;99.90;;;;;;4968704;28;21374;-90
2022/04/20 07:15:45;;;;;;;0.20;0.20;;;11.20;99.90;;;;;;4967295;28;20508;-91
2022/04/20 07:18:11;;;;;;;0.20;0.20;;;11.30;99.90;;;;;;4958902;28;21301;-87
2022/04/20 07:20:36;;;;;;;0.20;0.20;;;11.30;99.90;;;;;;4962394;28;20466;-88
2022/04/20 07:23:02;;;;;;;0.20;0.20;;;11.30;99.90;;;;;;4962638;28;20460;-86
2022/04/20 07:25:29;;;;;;;0.20;0.20;;;11.50;99.90;;;;;;4965087;28;20615;-89
2022/04/20 07:27:55;;;;;;;0.30;0.30;;;11.40;99.90;;;;;;4967087;28;20194;-86
2022/04/20 07:30:21;;;;;;;0.20;0.20;;;11.60;99.90;;;;;;4965225;28;20460;-85
2022/04/20 07:32:48;;;;;;;0.10;0.10;;;11.70;99.90;;;;;;4970896;28;20227;-88
2022/04/20 07:35:14;;;;;;;0.10;0.10;;;11.80;99.90;;;;;;4968272;28;20444;-87
2022/04/20 07:37:39;;;;;;;0.30;0.30;;;11.80;99.90;;;;;;4970621;28;20952;-88
2022/04/20 07:40:06;;;;;;;0.30;0.30;;;12.00;99.90;;;;;;4968629;28;20201;-92
2022/04/20 07:42:32;;;;;;;0.20;0.20;;;12.10;99.90;;;;;;4974377;28;20182;-93
2022/04/20 07:44:58;;;;;;;0.10;0.10;;;12.10;99.90;;;;;;4972694;28;20444;-89
2022/04/20 07:47:25;;;;;;;0.20;0.20;;;12.10;99.90;;;;;;4962852;28;20190;-91
2022/04/20 07:52:40;;;;;;;0.10;0.10;;;12.30;99.90;;;;;;4979969;28;20467;-86
2022/04/20 07:55:17;;;;;;;0.20;0.20;;;12.50;99.90;;;;;;4978476;28;20428;-85
2022/04/20 07:57:43;;;;;;;0.10;0.10;;;12.40;99.90;;;;;;4977594;28;21324;-79
2022/04/20 08:00:10;;;;;;;0.20;0.20;;;12.60;99.90;;;;;;4959490;28;20441;-83
2022/04/20 08:02:35;;;;;;;0.10;0.10;;;12.70;99.90;;;;;;4971126;28;20241;-87
2022/04/20 08:05:01;;;;;;;0.20;0.20;;;12.80;99.90;;;;;;4952437;28;20442;-83
2022/04/20 08:07:27;;;;;;;0.20;0.20;;;12.90;99.90;;;;;;4967736;28;20810;-83
2022/04/20 08:09:53;;;;;;;0.17;0.17;;;13.00;99.90;;;;;;4944461;28;20190;-83
2022/04/20 08:12:19;;;;;;;0.10;0.10;;;12.90;99.90;;;;;;4952483;28;20289;-84
2022/04/20 08:14:45;;;;;;;0.10;0.10;;;13.20;99.90;;;;;;4934704;28;20524;-85
2022/04/20 08:17:10;;;;;;;0.10;0.10;;;13.10;99.90;;;;;;4969694;28;20186;-85
2022/04/20 08:19:36;;;;;;;0.20;0.20;;;13.20;99.90;;;;;;4964349;28;20198;-85
2022/04/20 08:22:02;;;;;;;0.10;0.10;;;13.30;99.90;;;;;;4953795;28;21840;-85
2022/04/20 08:24:28;;;;;;;0.10;0.10;;;13.20;99.90;;;;;;4971482;28;20445;-85
2022/04/20 08:26:53;;;;;;;0.10;0.10;;;13.30;99.90;;;;;;4965457;28;20495;-85
2022/04/20 08:29:19;;;;;;;0.10;0.10;;;13.40;99.90;;;;;;4970148;28;20201;-85
2022/04/20 08:31:45;;;;;;;0.10;0.10;;;13.50;99.90;;;;;;4950057;28;20225;-85
2022/04/20 08:34:11;;;;;;;0.10;0.10;;;13.90;99.90;;;;;;4970799;28;20440;-85
2022/04/20 08:36:36;;;;;;;0.10;0.10;;;14.00;99.90;;;;;;4954772;28;20737;-86
2022/04/20 08:39:02;;;;;;;0.10;0.10;;;14.10;99.90;;;;;;4966609;28;20217;-86
2022/04/20 08:41:28;;;;;;;0.10;0.10;;;14.20;99.90;;;;;;4965767;28;20190;-86
2022/04/20 08:43:56;;;;;;;0.10;0.10;;;14.10;99.90;;;;;;4962587;28;20472;-89
2022/04/20 08:46:23;;;;;;;0.10;0.10;;;14.20;99.90;;;;;;4971534;28;20685;-90
2022/04/20 08:48:50;;;;;;;0.10;0.10;;;14.20;99.90;;;;;;4953649;28;20446;-86
2022/04/20 08:51:17;;;;;;;0.10;0.10;;;14.40;99.90;;;;;;4968297;28;20485;-90
2022/04/20 08:53:43;;;;;;;0.10;0.10;;;14.80;99.90;;;;;;4945547;28;20464;-88
2022/04/20 08:59:08;;;;;;;0.10;0.10;;;14.70;99.90;;;;;;4920641;28;20465;-88
2022/04/20 09:01:33;;;;;;;0.10;0.10;;;14.80;99.90;;;;;;4952607;28;20464;-88
2022/04/20 09:04:00;;;;;;;0.10;0.10;;;15.00;99.90;;;;;;4965997;28;20457;-89
2022/04/20 09:06:25;;;;;;;0.10;0.10;;;14.90;99.90;;;;;;4970735;28;20595;-90
2022/04/20 09:08:52;;;;;;;0.10;0.10;;;15.20;99.90;;;;;;4967171;28;20501;-90
2022/04/20 09:11:17;;;;;;;0.10;0.10;;;15.50;99.90;;;;;;4970037;28;20232;-89
2022/04/20 09:13:44;;;;;;;0.10;0.10;;;15.60;99.90;;;;;;4963145;28;20446;-89
2022/04/20 09:16:12;;;;;;;0.10;0.10;;;15.60;99.00;;;;;;4967302;28;20205;-90
2022/04/20 09:18:39;;;;;;;0.10;0.10;;;16.10;99.90;;;;;;4967303;28;20449;-90
2022/04/20 09:21:06;;;;;;;0.10;0.10;;;16.20;99.70;;;;;;4970321;28;21102;-89
2022/04/20 09:23:32;;;;;;;0.10;0.10;;;16.10;99.00;;;;;;4970524;28;20473;-89
2022/04/20 09:26:07;;;;;;;0.20;0.20;;;16.00;99.30;;;;;;4971475;28;21182;-90
2022/04/20 09:28:32;;;;;;;0.00;0.00;;;16.10;97.90;;;;;;4952446;28;20525;-88
2022/04/20 09:30:58;;;;;;;0.00;0.00;;;16.10;98.30;;;;;;4968791;28;20540;-87
2022/04/20 09:33:50;;;;;;;0.00;0.00;;;16.30;98.30;;;;;;4968060;28;20198;-89
2022/04/20 09:36:40;;;;;;;0.00;0.00;;;16.50;99.90;;;;;;4955778;28;20190;-86
2022/04/20 09:39:05;;;;;;;0.00;0.00;;;16.50;98.90;;;;;;4969180;28;20959;-86
2022/04/20 09:41:31;;;;;;;0.00;0.00;;;16.40;97.70;;;;;;4973405;28;20549;-84
2022/04/20 09:44:10;;;;;;;0.00;0.00;;;16.60;98.00;;;;;;4978081;28;20205;-86
2022/04/20 09:50:01;;;;;;;0.00;0.00;;;16.60;97.20;;;;;;4893121;29;20459;-84
2022/04/20 09:52:44;;;;;;;0.00;0.00;;;17.00;97.70;;;;;;4892364;29;20485;-83
2022/04/20 09:55:30;;;;;;;0.00;0.00;;;17.60;96.50;;;;;;4942429;28;20515;-80
2022/04/20 09:58:20;;;;;;;0.00;0.00;;;17.30;96.30;;;;;;4974329;28;20453;-81
2022/04/20 10:00:56;;;;;;;0.00;0.00;;;17.40;96.00;;;;;;4966305;28;20481;-86
2022/04/20 10:03:26;;;;;;;0.00;0.00;;;17.40;94.10;;;;;;4966047;28;20441;-87
2022/04/20 10:05:53;;;;;;;0.00;0.00;;;17.40;93.70;;;;;;4968946;28;20449;-86
2022/04/20 10:08:20;;;;;;;0.00;0.00;;;17.60;93.90;;;;;;4966170;28;20516;-86
2022/04/20 10:10:48;;;;;;;0.00;0.00;;;17.40;96.20;;;;;;4969678;28;20511;-86
2022/04/20 10:13:14;;;;;;;0.00;0.00;;;17.90;94.70;;;;;;4967396;28;21149;-86
2022/04/20 10:18:28;;;;;;;0.00;0.00;;;18.50;93.10;;;;;;4965652;28;20481;-87
2022/04/20 10:20:59;;;;;;;0.00;0.00;;;18.40;92.60;;;;;;4962998;28;20437;-86
2022/04/20 10:23:25;;;;;;;0.00;0.00;;;18.40;91.70;;;;;;4965474;28;20502;-86
2022/04/20 10:25:56;;;;;;;0.00;0.00;;;18.50;91.40;;;;;;4962031;28;21225;-86
2022/04/20 10:29:01;;;;;;;0.00;0.00;;;18.60;90.70;;;;;;4967711;28;20519;-87
2022/04/20 10:31:51;;;;;;;0.00;0.00;;;18.70;90.90;;;;;;4942765;28;20916;-88
2022/04/20 10:34:19;;;;;;;0.00;0.00;;;19.10;91.10;;;;;;4958021;28;20477;-86
2022/04/20 10:36:58;;;;;;;0.00;0.00;;;19.20;89.60;;;;;;4949645;28;20452;-86
2022/04/20 10:39:27;;;;;;;0.00;0.00;;;19.40;89.60;;;;;;4960228;28;20975;-86
2022/04/20 10:42:16;;;;;;;0.00;0.00;;;19.20;90.20;;;;;;4970087;28;20438;-87
2022/04/20 10:44:55;;;;;;;0.00;0.00;;;19.30;88.50;;;;;;4952042;28;20812;-87
2022/04/20 10:47:32;;;;;;;0.00;0.00;;;19.30;88.20;;;;;;4970605;28;20437;-87
2022/04/20 10:50:30;;;;;;;0.00;0.00;;;19.60;89.00;;;;;;4952176;28;20524;-87
2022/04/20 10:53:04;;;;;;;0.00;0.00;;;19.40;90.60;;;;;;4924753;28;20457;-86
2022/04/20 10:55:35;;;;;;;0.00;0.00;;;19.60;88.30;;;;;;4946608;28;20984;-87
2022/04/20 10:58:04;;;;;;;0.00;0.00;;;20.00;90.60;;;;;;4968419;28;20527;-87
2022/04/20 11:00:34;;;;;;;0.00;0.00;;;20.20;85.20;;;;;;4966236;28;20456;-87
2022/04/20 11:03:07;;;;;;;0.00;0.00;;;19.30;82.10;;;;;;4963253;28;20441;-87
2022/04/20 11:05:53;;;;;;;0.00;0.00;;;20.00;86.60;;;;;;4946016;28;20495;-87
2022/04/20 11:08:20;;;;;;;0.00;0.00;;;19.70;85.30;;;;;;4954302;28;20492;-87
2022/04/20 11:19:49;;;;;;;0.00;0.00;;;21.20;83.80;;;;;;4967492;28;20459;-87
2022/04/20 11:22:15;;;;;;;0.00;0.00;;;20.60;78.00;;;;;;4972471;28;20457;-88
2022/04/20 11:24:41;;;;;;;0.00;0.00;;;21.10;83.60;;;;;;4969676;28;20487;-90
2022/04/20 11:27:07;;;;;;;0.00;0.00;;;21.20;82.90;;;;;;4955587;28;20213;-89
2022/04/20 11:29:33;;;;;;;0.00;0.00;;;21.40;82.80;;;;;;4971884;28;20465;-90
2022/04/20 11:32:09;;;;;;;0.00;0.00;;;21.40;79.90;;;;;;4955009;28;20488;-88
2022/04/20 11:34:36;;;;;;;0.00;0.00;;;21.40;82.20;;;;;;4954274;28;21198;-88
2022/04/20 11:37:03;;;;;;;0.00;0.00;;;21.60;78.80;;;;;;4972027;28;20464;-88
2022/04/20 11:39:30;;;;;;;0.00;0.00;;;21.50;77.20;;;;;;4942146;28;20454;-90
2022/04/20 11:42:01;;;;;;;0.00;0.00;;;21.70;78.30;;;;;;4968185;28;20472;-87
2022/04/20 11:44:28;;;;;;;0.00;0.00;;;21.30;79.00;;;;;;4971377;28;20437;-87
2022/04/20 11:46:57;;;;;;;0.00;0.00;;;21.30;76.40;;;;;;4969411;28;20536;-89
2022/04/20 11:49:32;;;;;;;0.00;0.00;;;21.30;77.20;;;;;;4954111;28;20445;-87
2022/04/20 11:51:58;;;;;;;0.00;0.00;;;21.30;82.10;;;;;;4970391;28;21002;-88
2022/04/20 11:54:25;;;;;;;0.00;0.00;;;21.80;79.60;;;;;;4962659;28;20532;-88
2022/04/20 11:56:51;;;;;;;0.00;0.00;;;22.00;76.40;;;;;;4969274;28;20515;-85
2022/04/20 11:59:18;;;;;;;0.00;0.00;;;21.90;74.30;;;;;;4971161;28;20524;-88
2022/04/20 12:01:45;;;;;;;0.00;0.00;;;22.40;75.00;;;;;;4955912;28;20244;-89
2022/04/20 12:04:12;;;;;;;0.00;0.00;;;22.70;71.20;;;;;;4972927;28;20503;-88
2022/04/20 12:06:43;;;;;;;0.00;0.00;;;22.70;72.50;;;;;;4954662;28;21043;-88
2022/04/20 12:09:09;;;;;;;0.00;0.00;;;22.60;73.40;;;;;;4966832;28;20468;-84
2022/04/20 12:11:34;;;;;;;0.00;0.00;;;23.00;74.00;;;;;;4968386;28;21072;-86
2022/04/20 12:14:00;;;;;;;0.00;0.00;;;23.10;74.40;;;;;;4951277;28;20193;-86
2022/04/20 12:16:25;;;;;;;0.00;0.00;;;23.10;73.60;;;;;;4972651;28;20190;-88
2022/04/20 12:18:52;;;;;;;0.00;0.00;;;23.00;73.20;;;;;;4967040;28;20584;-88
2022/04/20 12:21:41;;;;;;;0.00;0.00;;;22.80;75.60;;;;;;4965785;28;20216;-87
2022/04/20 12:24:25;;;;;;;0.00;0.00;;;23.00;70.90;;;;;;4953153;28;20485;-86
2022/04/20 12:26:53;;;;;;;0.00;0.00;;;23.20;72.70;;;;;;4972532;28;20445;-87
2022/04/20 12:29:21;;;;;;;0.00;0.00;;;22.90;73.30;;;;;;4969574;28;20449;-86
2022/04/20 12:31:49;;;;;;;0.00;0.00;;;23.10;72.30;;;;;;4976160;28;20539;-87
2022/04/20 12:34:15;;;;;;;0.00;0.00;;;23.60;72.30;;;;;;4968903;28;20441;-87
2022/04/20 12:37:18;;;;;;;0.00;0.00;;;23.50;71.00;;;;;;4949917;28;20453;-88
2022/04/20 12:39:45;;;;;;;0.00;0.00;;;23.10;68.00;;;;;;4877099;29;20459;-88
2022/04/20 12:42:15;;;;;;;0.00;0.00;;;23.10;70.10;;;;;;4948486;28;20515;-88
2022/04/20 12:45:21;;;;;;;0.00;0.00;;;23.00;67.40;;;;;;4947800;28;20445;-88
2022/04/20 12:47:40;;;;;;;0.00;0.00;;;23.60;70.20;;;;;;4966830;28;20541;-88
2022/04/20 12:50:11;;;;;;;0.00;0.00;;;23.20;70.10;;;;;;4969060;28;20532;-88
2022/04/20 12:52:37;;;;;;;0.00;0.00;;;23.30;71.90;;;;;;4965351;28;20260;-88
2022/04/20 12:55:08;;;;;;;0.00;0.00;;;23.40;67.90;;;;;;4965437;28;20445;-88
2022/04/20 13:03:13;;;;;;;0.00;0.00;;;23.40;70.20;;;;;;4963080;28;20544;-88
2022/04/20 13:19:47;;;;;;;0.00;0.00;;;23.20;66.80;;;;;;5101848;27;20626;-87
2022/04/20 13:22:12;;;;;;;0.00;0.00;;;22.90;69.90;;;;;;5081208;28;20951;-89
2022/04/20 13:30:07;;;;;;;0.00;0.00;;;23.50;65.30;;;;;;5082539;28;20518;-88
2022/04/20 13:32:32;;;;;;;0.00;0.00;;;23.30;65.30;;;;;;5103485;28;20443;-88
2022/04/20 13:34:58;;;;;;;0.00;0.00;;;23.30;65.80;;;;;;5078732;28;20440;-88
2022/04/20 13:37:23;;;;;;;0.00;0.00;;;23.70;69.50;;;;;;5085990;28;20184;-94
2022/04/20 13:39:49;;;;;;;0.00;0.00;;;23.40;77.10;;;;;;5101326;28;20189;-88
2022/04/20 13:42:14;;;;;;;0.00;0.00;;;23.40;82.30;;;;;;5094153;28;20267;-87
2022/04/20 13:44:40;;;;;;;0.00;0.00;;;23.30;78.80;;;;;;5081833;28;20224;-90
2022/04/20 13:47:06;;;;;;;0.00;0.00;;;23.70;78.20;;;;;;5082509;28;20185;-89
2022/04/20 13:49:31;;;;;;;0.00;0.00;;;23.60;75.40;;;;;;5080230;28;20181;-89
2022/04/20 13:51:56;;;;;;;0.00;0.00;;;22.90;72.50;;;;;;5081712;28;20177;-88
2022/04/20 13:54:22;;;;;;;0.00;0.00;;;22.80;71.40;;;;;;5077725;28;20224;-88
2022/04/20 13:56:50;;;;;;;0.00;0.00;;;23.00;71.70;;;;;;5085184;28;20186;-89
2022/04/20 13:59:15;;;;;;;0.00;0.00;;;22.40;70.90;;;;;;5078978;28;20262;-89
2022/04/20 14:01:41;;;;;;;0.00;0.00;;;21.90;69.30;;;;;;5079283;28;20903;-89